createdAt,value
2022-12-11T00:03:01.451Z,84.66
2022-12-11T00:06:12.886Z,84.78
2022-12-11T00:09:22.540Z,84.38
2022-12-11T00:12:32.874Z,84.08
2022-12-11T00:15:41.134Z,84.59
2022-12-11T00:18:49.338Z,84.52
2022-12-11T00:21:57.760Z,84.89
2022-12-11T00:25:07.301Z,85.09
2022-12-11T00:28:19.113Z,85.36
2022-12-11T00:31:27.563Z,86.23
2022-12-11T00:34:35.926Z,86.12
2022-12-11T00:37:44.134Z,85.49
2022-12-11T00:40:52.977Z,85.15
2022-12-11T00:44:03.332Z,85.29
2022-12-11T00:47:11.496Z,85.55
2022-12-11T00:50:19.929Z,84.54
2022-12-11T00:53:28.927Z,84.40
2022-12-11T00:56:37.143Z,85.52
2022-12-11T00:59:46.778Z,84.43
2022-12-11T01:02:55.126Z,84.75
2022-12-11T01:06:03.375Z,84.28
2022-12-11T01:09:29.303Z,84.21
2022-12-11T01:12:38.254Z,83.74
2022-12-11T01:15:47.869Z,84.60
2022-12-11T01:18:56.182Z,84.24
2022-12-11T01:22:04.612Z,83.92
2022-12-11T01:25:13.312Z,83.66
2022-12-11T01:28:21.502Z,83.56
2022-12-11T01:31:31.345Z,83.79
2022-12-11T01:34:39.681Z,83.69
2022-12-11T01:37:48.704Z,83.53
2022-12-11T01:40:56.952Z,84.65
2022-12-11T01:44:09.993Z,84.26
2022-12-11T01:47:19.764Z,84.10
2022-12-11T01:50:29.650Z,83.61
2022-12-11T01:53:44.249Z,82.98
2022-12-11T01:56:58.676Z,83.16
2022-12-11T02:00:08.934Z,83.60
2022-12-11T02:03:23.522Z,82.70
2022-12-11T02:06:37.192Z,83.01
2022-12-11T02:09:48.752Z,82.87
2022-12-11T02:13:08.491Z,83.40
2022-12-11T02:16:27.507Z,83.13
2022-12-11T02:20:00.604Z,82.59
2022-12-11T02:23:57.488Z,82.23
2022-12-11T02:27:24.585Z,82.67
2022-12-11T02:30:38.563Z,82.48
2022-12-11T02:33:53.924Z,82.54
2022-12-11T02:37:09.091Z,82.60
2022-12-11T02:40:26.068Z,82.85
2022-12-11T02:43:37.734Z,83.37
2022-12-11T02:46:47.680Z,83.01
2022-12-11T02:50:01.068Z,83.30
2022-12-11T02:53:13.733Z,83.52
2022-12-11T02:56:33.426Z,83.51
2022-12-11T02:59:46.376Z,83.74
2022-12-11T03:02:56.305Z,83.47
2022-12-11T03:06:05.377Z,83.50
2022-12-11T03:12:56.230Z,83.07
2022-12-11T03:16:16.503Z,83.42
2022-12-11T03:19:39.516Z,84.27
2022-12-11T03:22:55.279Z,83.35
2022-12-11T03:26:07.672Z,83.22
2022-12-11T03:29:22.792Z,83.87
2022-12-11T03:32:39.652Z,84.48
2022-12-11T03:35:56.036Z,84.28
2022-12-11T03:39:11.653Z,83.08
2022-12-11T03:42:24.344Z,82.92
2022-12-11T03:45:35.138Z,84.33
2022-12-11T03:48:47.037Z,83.08
2022-12-11T03:52:02.014Z,83.56
2022-12-11T03:55:13.544Z,82.86
2022-12-11T03:58:21.770Z,82.89
2022-12-11T04:01:30.086Z,83.09
2022-12-11T04:04:38.488Z,82.96
2022-12-11T04:07:48.194Z,83.21
2022-12-11T04:11:10.579Z,83.22
2022-12-11T04:14:36.625Z,83.37
2022-12-11T04:18:02.637Z,83.01
2022-12-11T04:21:28.293Z,84.02
2022-12-11T04:24:37.936Z,82.65
2022-12-11T04:27:52.975Z,83.61
2022-12-11T04:31:02.001Z,84.11
2022-12-11T04:34:10.697Z,83.31
2022-12-11T04:37:18.874Z,83.55
2022-12-11T04:40:28.506Z,83.41
2022-12-11T04:43:37.466Z,82.96
2022-12-11T04:46:45.677Z,84.18
2022-12-11T04:49:54.057Z,82.51
2022-12-11T04:53:02.236Z,83.35
2022-12-11T04:56:15.511Z,82.18
2022-12-11T04:59:23.960Z,82.31
2022-12-11T05:02:35.799Z,82.44
2022-12-11T05:05:50.675Z,82.04
2022-12-11T05:08:59.061Z,83.15
2022-12-11T05:12:09.218Z,83.42
2022-12-11T05:15:17.697Z,83.22
2022-12-11T05:18:27.055Z,83.02
2022-12-11T05:21:35.489Z,84.38
2022-12-11T05:24:43.984Z,84.63
2022-12-11T05:27:53.506Z,84.18
2022-12-11T05:31:06.515Z,83.36
2022-12-11T05:34:15.240Z,84.65
2022-12-11T05:37:23.828Z,83.77
2022-12-11T05:40:32.007Z,83.59
2022-12-11T05:43:42.513Z,84.68
2022-12-11T05:46:50.815Z,83.72
2022-12-11T05:49:59.007Z,82.62
2022-12-11T05:53:07.228Z,82.85
2022-12-11T05:56:18.184Z,82.38
2022-12-11T05:59:27.763Z,83.48
2022-12-11T06:02:36.799Z,83.39
2022-12-11T06:05:45.084Z,83.73
2022-12-11T06:08:54.294Z,83.48
2022-12-11T06:12:02.484Z,83.93
2022-12-11T06:15:12.546Z,84.78
2022-12-11T06:18:20.973Z,83.98
2022-12-11T06:21:31.906Z,83.77
2022-12-11T06:24:40.313Z,82.00
2022-12-11T06:27:48.486Z,81.53
2022-12-11T06:30:59.787Z,80.56
2022-12-11T06:34:09.694Z,80.77
2022-12-11T06:37:17.963Z,81.28
2022-12-11T06:40:26.140Z,81.08
2022-12-11T06:43:35.120Z,80.48
2022-12-11T06:46:44.700Z,81.19
2022-12-11T06:49:52.931Z,81.47
2022-12-11T06:53:01.057Z,81.39
2022-12-11T06:56:14.137Z,81.25
2022-12-11T06:59:22.348Z,81.28
2022-12-11T07:02:31.992Z,81.22
2022-12-11T07:05:40.329Z,81.00
2022-12-11T07:08:48.604Z,80.77
2022-12-11T07:11:56.976Z,80.14
2022-12-11T07:15:06.569Z,80.33
2022-12-11T07:18:19.040Z,79.87
2022-12-11T07:21:27.363Z,80.29
2022-12-11T07:24:35.579Z,80.51
2022-12-11T07:27:43.869Z,79.35
2022-12-11T07:30:52.088Z,79.51
2022-12-11T07:34:06.350Z,79.99
2022-12-11T07:37:15.029Z,79.23
2022-12-11T07:40:23.739Z,79.53
2022-12-11T07:43:32.448Z,79.07
2022-12-11T07:46:41.457Z,79.50
2022-12-11T07:49:51.349Z,78.68
2022-12-11T07:52:59.506Z,77.72
2022-12-11T07:56:08.905Z,78.92
2022-12-11T07:59:17.699Z,77.82
2022-12-11T08:02:26.257Z,77.70
2022-12-11T08:05:35.994Z,77.83
2022-12-11T08:08:45.419Z,78.39
2022-12-11T08:11:53.899Z,78.92
2022-12-11T08:15:02.482Z,78.06
2022-12-11T08:18:10.722Z,78.55
2022-12-11T08:21:22.955Z,78.35
2022-12-11T08:24:31.246Z,77.57
2022-12-11T08:27:39.493Z,77.95
2022-12-11T08:30:47.827Z,79.00
2022-12-11T08:33:57.628Z,78.81
2022-12-11T08:37:07.237Z,78.66
2022-12-11T08:40:15.555Z,78.09
2022-12-11T08:43:23.858Z,77.00
2022-12-11T08:46:33.711Z,77.43
2022-12-11T08:49:41.971Z,76.45
2022-12-11T08:52:51.934Z,74.83
2022-12-11T08:56:03.277Z,73.19
2022-12-11T08:59:11.571Z,72.99
2022-12-11T09:02:19.870Z,71.79
2022-12-11T09:05:28.177Z,72.08
2022-12-11T09:08:37.992Z,72.98
2022-12-11T09:11:46.557Z,73.33
2022-12-11T09:14:54.873Z,73.69
2022-12-11T09:18:03.146Z,73.82
2022-12-11T09:21:15.937Z,72.90
2022-12-11T09:24:25.801Z,72.28
2022-12-11T09:27:35.775Z,72.30
2022-12-11T09:30:44.225Z,72.03
2022-12-11T09:33:56.492Z,72.52
2022-12-11T09:37:04.933Z,73.32
2022-12-11T09:40:15.859Z,73.73
2022-12-11T09:43:38.653Z,74.19
2022-12-11T09:46:48.505Z,75.83
2022-12-11T09:50:08.079Z,75.60
2022-12-11T09:53:23.703Z,74.48
2022-12-11T09:56:40.418Z,76.25
2022-12-11T10:00:09.157Z,77.42
2022-12-11T10:04:03.485Z,76.28
2022-12-11T10:07:29.576Z,76.76
2022-12-11T10:10:46.959Z,75.26
2022-12-11T10:14:11.606Z,73.48
2022-12-11T10:17:29.116Z,72.43
2022-12-11T10:20:41.163Z,74.99
2022-12-11T10:23:58.448Z,71.35
2022-12-11T10:27:19.394Z,70.94
2022-12-11T10:30:38.002Z,72.03
2022-12-11T10:34:00.418Z,72.10
2022-12-11T10:37:08.681Z,72.67
2022-12-11T10:40:19.568Z,70.91
2022-12-11T10:43:37.084Z,72.00
2022-12-11T10:46:49.273Z,70.33
2022-12-11T10:50:02.331Z,73.43
2022-12-11T10:53:23.018Z,72.09
2022-12-11T10:56:35.084Z,72.08
2022-12-11T10:59:50.448Z,72.51
2022-12-11T11:03:01.882Z,70.17
2022-12-11T11:06:19.715Z,70.55
2022-12-11T11:09:33.071Z,68.35
2022-12-11T11:12:44.226Z,68.73
2022-12-11T11:16:01.204Z,67.70
2022-12-11T11:19:23.466Z,67.70
2022-12-11T11:22:33.888Z,67.51
2022-12-11T11:25:52.170Z,68.70
2022-12-11T11:29:00.496Z,67.69
2022-12-11T11:32:21.064Z,66.26
2022-12-11T11:35:32.704Z,66.89
2022-12-11T11:38:48.857Z,69.03
2022-12-11T11:42:10.404Z,68.89
2022-12-11T11:45:25.914Z,70.92
2022-12-11T11:48:46.877Z,69.62
2022-12-11T11:52:05.799Z,70.04
2022-12-11T11:55:22.827Z,69.51
2022-12-11T11:58:43.432Z,70.05
2022-12-11T12:01:55.045Z,69.39
2022-12-11T12:05:05.294Z,69.44
2022-12-11T12:08:31.331Z,69.78
2022-12-11T12:11:50.721Z,71.72
2022-12-11T12:15:25.362Z,72.77
2022-12-11T12:18:48.888Z,73.82
2022-12-11T12:21:58.330Z,73.40
2022-12-11T12:25:23.410Z,74.71
2022-12-11T12:28:49.054Z,74.88
2022-12-11T12:32:15.208Z,74.52
2022-12-11T12:35:36.808Z,74.32
2022-12-11T12:38:55.684Z,73.12
2022-12-11T12:42:18.214Z,72.19
2022-12-11T12:45:33.381Z,71.06
2022-12-11T12:48:42.015Z,72.17
2022-12-11T12:51:52.906Z,70.76
2022-12-11T12:55:16.199Z,71.09
2022-12-11T12:58:30.625Z,70.71
2022-12-11T13:01:40.402Z,69.50
2022-12-11T13:05:01.163Z,70.14
2022-12-11T13:08:13.157Z,69.25
2022-12-11T13:11:33.219Z,68.63
2022-12-11T13:14:43.518Z,68.12
2022-12-11T13:17:52.480Z,67.95
2022-12-11T13:21:01.622Z,68.21
2022-12-11T13:24:27.591Z,67.48
2022-12-11T13:27:40.788Z,68.05
2022-12-11T13:31:03.778Z,67.42
2022-12-11T13:34:22.338Z,67.85
2022-12-11T13:37:36.554Z,68.18
2022-12-11T13:40:48.258Z,67.64
2022-12-11T13:43:59.011Z,67.90
2022-12-11T13:47:17.260Z,68.60
2022-12-11T13:50:30.778Z,69.14
2022-12-11T13:53:39.105Z,67.81
2022-12-11T13:57:01.547Z,69.59
2022-12-11T14:00:23.957Z,69.36
2022-12-11T14:03:34.655Z,70.04
2022-12-11T14:06:43.730Z,71.15
2022-12-11T14:09:53.432Z,70.88
2022-12-11T14:13:06.720Z,72.35
2022-12-11T14:16:24.209Z,71.17
2022-12-11T14:19:34.918Z,72.50
2022-12-11T14:22:43.258Z,73.04
2022-12-11T14:25:55.359Z,72.74
2022-12-11T14:29:04.058Z,72.51
2022-12-11T14:32:22.097Z,72.17
2022-12-11T14:35:39.342Z,72.34
2022-12-11T14:38:53.699Z,72.16
2022-12-11T14:42:07.738Z,73.03
2022-12-11T14:45:24.781Z,72.80
2022-12-11T14:48:45.207Z,73.59
2022-12-11T14:51:59.783Z,74.57
2022-12-11T14:55:17.170Z,73.57
2022-12-11T14:58:28.329Z,72.35
2022-12-11T15:01:39.557Z,73.35
2022-12-11T15:05:14.470Z,74.20
2022-12-11T15:08:30.365Z,74.26
2022-12-11T15:11:38.795Z,74.97
2022-12-11T15:14:54.346Z,77.07
2022-12-11T15:18:13.683Z,76.95
2022-12-11T15:21:32.076Z,76.79
2022-12-11T15:24:46.429Z,77.96
2022-12-11T15:27:57.844Z,77.10
2022-12-11T15:31:23.321Z,77.83
2022-12-11T15:34:37.151Z,78.08
2022-12-11T15:37:55.038Z,78.67
2022-12-11T15:41:07.220Z,78.39
2022-12-11T15:44:23.557Z,78.65
2022-12-11T15:47:33.058Z,79.89
2022-12-11T15:50:41.472Z,79.22
2022-12-11T15:53:49.851Z,79.55
2022-12-11T15:57:07.427Z,80.90
2022-12-11T16:00:18.673Z,80.46
2022-12-11T16:03:28.212Z,81.02
2022-12-11T16:06:36.863Z,80.92
2022-12-11T16:09:46.616Z,81.30
2022-12-11T16:12:59.816Z,81.94
2022-12-11T16:16:09.293Z,82.39
2022-12-11T16:19:18.170Z,82.93
2022-12-11T16:22:26.560Z,82.91
2022-12-11T16:25:37.728Z,82.16
2022-12-11T16:28:50.247Z,82.82
2022-12-11T16:31:58.663Z,83.16
2022-12-11T16:35:08.148Z,82.78
2022-12-11T16:38:16.512Z,82.85
2022-12-11T16:41:26.208Z,82.11
2022-12-11T16:44:40.999Z,81.90
2022-12-11T16:47:52.458Z,81.54
2022-12-11T16:51:01.978Z,82.44
2022-12-11T16:54:10.548Z,81.68
2022-12-11T16:57:18.966Z,81.65
2022-12-11T17:00:28.751Z,81.46
2022-12-11T17:03:37.582Z,81.82
2022-12-11T17:06:46.398Z,81.60
2022-12-11T17:09:55.879Z,81.35
2022-12-11T17:13:05.383Z,81.72
2022-12-11T17:16:17.700Z,81.27
2022-12-11T17:19:27.201Z,81.03
2022-12-11T17:22:36.582Z,81.00
2022-12-11T17:25:46.844Z,81.22
2022-12-11T17:28:58.247Z,80.80
2022-12-11T17:32:12.334Z,80.07
2022-12-11T17:35:20.696Z,79.70
2022-12-11T17:38:30.332Z,80.00
2022-12-11T17:41:39.461Z,80.00
2022-12-11T17:44:48.130Z,80.58
2022-12-11T17:47:58.905Z,80.39
2022-12-11T17:51:10.449Z,80.60
2022-12-11T17:54:18.825Z,80.16
2022-12-11T17:57:27.516Z,80.17
2022-12-11T18:00:36.199Z,79.71
2022-12-11T18:03:46.983Z,79.91
2022-12-11T18:06:55.823Z,79.14
2022-12-11T18:10:04.895Z,78.65
2022-12-11T18:13:14.109Z,79.27
2022-12-11T18:16:26.332Z,79.11
2022-12-11T18:19:36.807Z,80.08
2022-12-11T18:22:47.524Z,79.25
2022-12-11T18:25:55.770Z,80.29
2022-12-11T18:29:04.507Z,79.28
2022-12-11T18:32:12.678Z,78.46
2022-12-11T18:35:22.616Z,79.03
2022-12-11T18:38:30.926Z,79.13
2022-12-11T18:41:39.886Z,78.90
2022-12-11T18:44:48.191Z,78.69
2022-12-11T18:47:56.768Z,78.71
2022-12-11T18:51:12.212Z,78.62
2022-12-11T18:54:20.570Z,77.88
2022-12-11T18:57:28.775Z,78.96
2022-12-11T19:00:41.042Z,78.94
2022-12-11T19:03:51.456Z,79.06
2022-12-11T19:07:02.638Z,79.27
2022-12-11T19:10:11.629Z,79.08
2022-12-11T19:13:20.625Z,78.77
2022-12-11T19:16:33.590Z,79.55
2022-12-11T19:19:43.325Z,79.03
2022-12-11T19:22:53.167Z,78.53
2022-12-11T19:26:02.392Z,77.85
2022-12-11T19:29:23.628Z,78.70
2022-12-11T19:32:36.372Z,78.72
2022-12-11T19:35:46.055Z,78.86
2022-12-11T19:39:01.522Z,79.07
2022-12-11T19:42:11.584Z,78.66
2022-12-11T19:45:20.044Z,77.97
2022-12-11T19:48:31.467Z,79.00
2022-12-11T19:51:43.775Z,79.64
2022-12-11T19:54:59.054Z,78.90
2022-12-11T19:58:10.460Z,79.13
2022-12-11T20:01:24.997Z,78.16
2022-12-11T20:04:33.867Z,78.13
2022-12-11T20:07:44.598Z,78.23
2022-12-11T20:10:55.154Z,77.69
2022-12-11T20:14:05.474Z,77.91
2022-12-11T20:17:15.404Z,78.39
2022-12-11T20:20:28.083Z,79.31
2022-12-11T20:23:37.428Z,79.10
2022-12-11T20:26:49.174Z,79.29
2022-12-11T20:29:57.435Z,79.22
2022-12-11T20:33:05.734Z,79.46
2022-12-11T20:36:19.564Z,78.87
2022-12-11T20:39:27.814Z,77.67
2022-12-11T20:42:37.814Z,78.16
2022-12-11T20:45:49.499Z,77.93
2022-12-11T20:48:59.753Z,77.74
2022-12-11T20:52:08.860Z,78.02
2022-12-11T20:55:17.393Z,78.60
2022-12-11T20:58:29.994Z,79.27
2022-12-11T21:01:38.488Z,80.45
2022-12-11T21:04:47.017Z,80.53
2022-12-11T21:07:58.751Z,80.84
2022-12-11T21:11:07.880Z,81.66
2022-12-11T21:14:19.304Z,81.59
2022-12-11T21:17:27.856Z,81.19
2022-12-11T21:20:37.428Z,82.03
2022-12-11T21:23:46.591Z,82.14
2022-12-11T21:26:56.642Z,80.67
2022-12-11T21:30:08.081Z,80.95
2022-12-11T21:33:16.775Z,80.15
2022-12-11T21:36:25.175Z,81.27
2022-12-11T21:39:38.922Z,81.63
2022-12-11T21:42:47.945Z,81.69
2022-12-11T21:46:02.268Z,81.41
2022-12-11T21:49:10.932Z,81.61
2022-12-11T21:52:19.642Z,80.74
2022-12-11T21:55:27.974Z,80.70
2022-12-11T21:58:36.569Z,80.67
2022-12-11T22:01:49.071Z,80.47
2022-12-11T22:05:01.048Z,79.71
2022-12-11T22:08:09.276Z,80.87
2022-12-11T22:11:20.219Z,79.76
2022-12-11T22:14:31.396Z,79.90
2022-12-11T22:17:42.119Z,79.55
2022-12-11T22:20:50.397Z,79.14
2022-12-11T22:23:58.853Z,79.94
2022-12-11T22:27:08.114Z,79.67
2022-12-11T22:30:17.631Z,80.49
2022-12-11T22:33:27.499Z,79.16
2022-12-11T22:36:35.727Z,80.02
2022-12-11T22:39:43.957Z,79.80
2022-12-11T22:42:52.371Z,80.16
2022-12-11T22:46:01.062Z,80.63
2022-12-11T22:49:11.010Z,80.06
2022-12-11T22:52:19.453Z,79.93
2022-12-11T22:55:27.820Z,80.19
2022-12-11T22:58:37.059Z,81.08
2022-12-11T23:01:45.676Z,80.84
2022-12-11T23:04:55.223Z,80.67
2022-12-11T23:08:06.929Z,80.90
2022-12-11T23:11:18.539Z,80.86
2022-12-11T23:14:27.449Z,81.56
2022-12-11T23:17:36.080Z,80.30
2022-12-11T23:20:46.069Z,80.55
2022-12-11T23:23:55.232Z,80.33
2022-12-11T23:27:03.690Z,80.56
2022-12-11T23:30:13.439Z,80.03
2022-12-11T23:33:26.736Z,79.64
2022-12-11T23:36:41.289Z,79.19
2022-12-11T23:39:49.662Z,79.46
2022-12-11T23:42:58.100Z,79.60
2022-12-11T23:46:11.518Z,79.83
2022-12-11T23:49:20.266Z,80.52
2022-12-11T23:52:29.996Z,80.05
2022-12-11T23:55:41.232Z,80.24
2022-12-11T23:58:49.609Z,80.26
